Terminal Aerodrome Forecast
Issued by NWS

Home | Current Version | Previous Version | Text Only | Print | Product List | Glossary On
Versions: 1 2 3 4 5 6 7 8 9 10 11 12 13 14 15 16 17 18 19 20 21 22 23 24 25 26 27 28 29
000
FTUS44 KHGX 200816 AAA
TAFLBX
TAF AMD
KLBX 200816Z 2008/2106 15014KT P6SM OVC012
     FM201000 16013KT 6SM BR VCSH BKN007 BKN013
     FM201200 16010KT 4SM SHRA BR VCTS BKN015CB OVC025
      TEMPO 2012/2016 VRB30KT 3SM TSRA OVC006CB
     FM201600 VRB07KT 4SM SHRA VCTS BKN010CB
     FM202200 09006KT P6SM -RA SCT020 BKN035 BKN120
     FM210300 VRB03KT 4SM BR SCT015 BKN250=

USA.gov is the U.S. government's official web portal to all federal, state and local government web resources and services.